Alpha, Ohio
Current Conditions -  °F | °C
As of 10:58 PM on Saturday 20 Dec 2014 (Local Time) from KFFO Reporting Station
Overcast Overcast  
Wind Chill: -2°   Ceiling: 2900
Heat Index: -2°   Visibility: 10mi
Dew Point: -4°   Wind: 0mph
Humidity: 82%   Direction: NA
Pressure: 30.28"   Gusts: NA
Location:  39.71°N, 84.02°W
Report Text: KFFO 210358Z AUTO 00000KT 10SM OVC029 M02/M04 A3028 RMK AO2 SLP266 T10161043
Loading
Personal Weather Stations






























Interactive Weather Map New forecast layout! Learn more

10-Day Weather Forecast

Advertisements
Track Severe Weather on mobile